DLH97P EDDF-LFML
Flight info
| Callsign | DLH97P |
|---|---|
| Flight time | 1h 20m |
| Altitude | 37000 |
| Route | ANEKI2L ANEKI Y163 HERBI Y164 MOPAN DCT LUTIX DCT BENOT DCT NEMOS DCT GEVEA DCT INCUS DCT BALSI |
| Aircraft | A319/M-SDE2E3FGILORWXYZ/HB1 |
Departure
| Time | 2026-05-05 14:28 |
|---|---|
| Airport | Frankfurt Main Airport (EDDF) |
Arrival
| Time | 2026-05-05 15:49 |
|---|---|
| Airport | Marseille Provence Airport (LFML) |
| Time | Latitude | Longitude | Altitude | Speed | Heading |
|---|---|---|---|---|---|
| 2026-05-05 13:52 | 50.04164 | 8.56070 | 363 ft | 0 kts | 160° |
| 2026-05-05 14:23 | 50.04158 | 8.56073 | 353 ft | 2 kts | 160° |
| 2026-05-05 14:23 | 50.04138 | 8.56085 | 360 ft | 5 kts | 159° |
| 2026-05-05 14:23 | 50.04096 | 8.56105 | 356 ft | 8 kts | 177° |
| 2026-05-05 14:24 | 50.04062 | 8.56015 | 357 ft | 12 kts | 250° |
| 2026-05-05 14:24 | 50.04030 | 8.55872 | 355 ft | 16 kts | 250° |
| 2026-05-05 14:24 | 50.03987 | 8.55690 | 349 ft | 20 kts | 250° |
| 2026-05-05 14:24 | 50.03935 | 8.55472 | 352 ft | 23 kts | 250° |
| 2026-05-05 14:25 | 50.03875 | 8.55226 | 356 ft | 26 kts | 250° |
| 2026-05-05 14:25 | 50.03810 | 8.54952 | 349 ft | 28 kts | 249° |
| 2026-05-05 14:25 | 50.03746 | 8.54683 | 350 ft | 26 kts | 249° |
| 2026-05-05 14:25 | 50.03682 | 8.54418 | 344 ft | 28 kts | 250° |
| 2026-05-05 14:26 | 50.03614 | 8.54132 | 345 ft | 27 kts | 249° |
| 2026-05-05 14:26 | 50.03550 | 8.53869 | 341 ft | 25 kts | 249° |
| 2026-05-05 14:26 | 50.03493 | 8.53627 | 339 ft | 23 kts | 250° |
| 2026-05-05 14:26 | 50.03440 | 8.53409 | 337 ft | 20 kts | 249° |
| 2026-05-05 14:27 | 50.03393 | 8.53209 | 336 ft | 19 kts | 249° |
| 2026-05-05 14:27 | 50.03348 | 8.53023 | 336 ft | 18 kts | 250° |
| 2026-05-05 14:27 | 50.03305 | 8.52843 | 334 ft | 19 kts | 250° |
| 2026-05-05 14:27 | 50.03255 | 8.52647 | 334 ft | 18 kts | 237° |
| 2026-05-05 14:28 | 50.03133 | 8.52597 | 334 ft | 28 kts | 179° |
| 2026-05-05 14:28 | 50.02655 | 8.52600 | 332 ft | 106 kts | 180° |
| 2026-05-05 14:28 | 50.01701 | 8.52614 | 438 ft | 156 kts | 181° |
| 2026-05-05 14:28 | 50.00631 | 8.52637 | 1201 ft | 154 kts | 181° |
| 2026-05-05 14:29 | 49.99545 | 8.52703 | 1898 ft | 165 kts | 180° |
| 2026-05-05 14:29 | 49.98322 | 8.52773 | 2361 ft | 187 kts | 180° |
| 2026-05-05 14:29 | 49.96928 | 8.52855 | 2787 ft | 213 kts | 181° |
| 2026-05-05 14:29 | 49.95361 | 8.52807 | 3356 ft | 238 kts | 183° |
| 2026-05-05 14:30 | 49.93640 | 8.52681 | 4115 ft | 255 kts | 184° |
| 2026-05-05 14:30 | 49.91843 | 8.52531 | 5182 ft | 261 kts | 184° |
| 2026-05-05 14:30 | 49.90020 | 8.52379 | 6273 ft | 265 kts | 184° |
| 2026-05-05 14:30 | 49.88168 | 8.52229 | 7301 ft | 268 kts | 183° |
| 2026-05-05 14:31 | 49.86285 | 8.52081 | 8322 ft | 272 kts | 183° |
| 2026-05-05 14:31 | 49.84381 | 8.51938 | 9351 ft | 276 kts | 182° |
| 2026-05-05 14:31 | 49.82442 | 8.51795 | 10190 ft | 286 kts | 182° |
| 2026-05-05 14:31 | 49.80372 | 8.51641 | 10641 ft | 307 kts | 182° |
| 2026-05-05 14:32 | 49.78203 | 8.51480 | 11409 ft | 315 kts | 182° |
| 2026-05-05 14:32 | 49.75995 | 8.51318 | 12281 ft | 320 kts | 182° |
| 2026-05-05 14:32 | 49.73757 | 8.51152 | 13170 ft | 325 kts | 182° |
| 2026-05-05 14:32 | 49.71483 | 8.50982 | 13993 ft | 329 kts | 182° |
| 2026-05-05 14:33 | 49.69183 | 8.50810 | 14778 ft | 332 kts | 182° |
| 2026-05-05 14:33 | 49.66890 | 8.50637 | 15541 ft | 336 kts | 182° |
| 2026-05-05 14:33 | 49.64646 | 8.50467 | 16272 ft | 339 kts | 182° |
| 2026-05-05 14:33 | 49.62252 | 8.50285 | 17040 ft | 343 kts | 182° |
| 2026-05-05 14:34 | 49.59854 | 8.50106 | 17792 ft | 346 kts | 182° |
| 2026-05-05 14:34 | 49.57465 | 8.49933 | 18484 ft | 350 kts | 182° |
| 2026-05-05 14:34 | 49.55022 | 8.49757 | 19156 ft | 353 kts | 182° |
| 2026-05-05 14:34 | 49.52561 | 8.49576 | 19835 ft | 355 kts | 182° |
| 2026-05-05 14:35 | 49.50082 | 8.49393 | 20515 ft | 358 kts | 182° |
| 2026-05-05 14:35 | 49.48398 | 8.49268 | 20970 ft | 360 kts | 182° |
| 2026-05-05 14:35 | 49.45711 | 8.49065 | 21680 ft | 363 kts | 182° |
| 2026-05-05 14:35 | 49.43177 | 8.48874 | 22346 ft | 366 kts | 182° |
| 2026-05-05 14:36 | 49.40626 | 8.48685 | 22998 ft | 369 kts | 182° |
| 2026-05-05 14:36 | 49.38052 | 8.48498 | 23604 ft | 372 kts | 182° |
| 2026-05-05 14:36 | 49.35460 | 8.48311 | 24140 ft | 375 kts | 182° |
| 2026-05-05 14:36 | 49.32840 | 8.48121 | 24670 ft | 377 kts | 182° |
| 2026-05-05 14:37 | 49.30212 | 8.47909 | 25189 ft | 380 kts | 183° |
| 2026-05-05 14:37 | 49.27565 | 8.47614 | 25707 ft | 382 kts | 184° |
| 2026-05-05 14:37 | 49.24910 | 8.47261 | 26223 ft | 385 kts | 184° |
| 2026-05-05 14:37 | 49.22231 | 8.46879 | 26726 ft | 387 kts | 184° |
| 2026-05-05 14:38 | 49.19538 | 8.46491 | 27223 ft | 390 kts | 184° |
| 2026-05-05 14:38 | 49.16832 | 8.46113 | 27716 ft | 392 kts | 184° |
| 2026-05-05 14:38 | 49.14103 | 8.45746 | 28203 ft | 395 kts | 184° |
| 2026-05-05 14:38 | 49.11357 | 8.45386 | 28678 ft | 397 kts | 184° |
| 2026-05-05 14:39 | 49.08593 | 8.45031 | 29157 ft | 400 kts | 183° |
| 2026-05-05 14:39 | 49.05849 | 8.44556 | 29608 ft | 404 kts | 189° |
| 2026-05-05 14:39 | 49.03057 | 8.43614 | 30047 ft | 407 kts | 191° |
| 2026-05-05 14:39 | 49.00325 | 8.42659 | 30441 ft | 409 kts | 191° |
| 2026-05-05 14:40 | 48.97546 | 8.41684 | 30843 ft | 411 kts | 191° |
| 2026-05-05 14:40 | 48.94748 | 8.40703 | 31248 ft | 413 kts | 191° |
| 2026-05-05 14:40 | 48.91949 | 8.39727 | 31704 ft | 413 kts | 191° |
| 2026-05-05 14:40 | 48.89155 | 8.38755 | 32280 ft | 411 kts | 191° |
| 2026-05-05 14:41 | 48.86377 | 8.37790 | 32850 ft | 408 kts | 191° |
| 2026-05-05 14:41 | 48.83616 | 8.36835 | 33410 ft | 406 kts | 191° |
| 2026-05-05 14:41 | 48.80865 | 8.35887 | 33957 ft | 404 kts | 191° |
| 2026-05-05 14:41 | 48.78124 | 8.34943 | 34389 ft | 404 kts | 191° |
| 2026-05-05 14:42 | 48.75392 | 8.33974 | 34779 ft | 404 kts | 192° |
| 2026-05-05 14:42 | 48.72663 | 8.32978 | 35157 ft | 404 kts | 193° |
| 2026-05-05 14:42 | 48.69934 | 8.31969 | 35520 ft | 404 kts | 193° |
| 2026-05-05 14:42 | 48.67203 | 8.30956 | 35864 ft | 404 kts | 193° |
| 2026-05-05 14:43 | 48.64506 | 8.29964 | 36223 ft | 404 kts | 193° |
| 2026-05-05 14:43 | 48.61775 | 8.28967 | 36590 ft | 404 kts | 193° |
| 2026-05-05 14:43 | 48.59006 | 8.27960 | 36818 ft | 404 kts | 194° |
| 2026-05-05 14:43 | 48.56286 | 8.26971 | 36861 ft | 400 kts | 194° |
| 2026-05-05 14:44 | 48.50944 | 8.25031 | 36851 ft | 396 kts | 194° |
| 2026-05-05 14:44 | 48.45586 | 8.23084 | 36850 ft | 396 kts | 194° |
| 2026-05-05 14:45 | 48.40248 | 8.21135 | 36856 ft | 396 kts | 194° |
| 2026-05-05 14:45 | 48.34855 | 8.19167 | 36847 ft | 396 kts | 194° |
| 2026-05-05 14:46 | 48.29529 | 8.17237 | 36847 ft | 396 kts | 194° |
| 2026-05-05 14:46 | 48.24216 | 8.15066 | 36844 ft | 396 kts | 202° |
| 2026-05-05 14:47 | 48.19257 | 8.11454 | 36846 ft | 396 kts | 206° |
| 2026-05-05 14:47 | 48.14315 | 8.07803 | 36867 ft | 397 kts | 206° |
| 2026-05-05 14:48 | 48.09362 | 8.04160 | 36859 ft | 397 kts | 206° |
| 2026-05-05 14:48 | 48.04410 | 8.00513 | 36861 ft | 397 kts | 206° |
| 2026-05-05 14:49 | 47.99460 | 7.96872 | 36864 ft | 396 kts | 206° |
| 2026-05-05 14:49 | 47.94510 | 7.93245 | 36871 ft | 396 kts | 206° |
| 2026-05-05 14:50 | 47.89566 | 7.89627 | 36862 ft | 396 kts | 206° |
| 2026-05-05 14:50 | 47.84624 | 7.86016 | 36851 ft | 395 kts | 206° |
| 2026-05-05 14:51 | 47.79682 | 7.82416 | 36867 ft | 396 kts | 206° |
| 2026-05-05 14:51 | 47.74735 | 7.78817 | 36848 ft | 396 kts | 206° |
| 2026-05-05 14:52 | 47.69788 | 7.75232 | 36856 ft | 395 kts | 206° |
| 2026-05-05 14:52 | 47.64838 | 7.71656 | 36871 ft | 396 kts | 206° |
| 2026-05-05 14:53 | 47.60729 | 7.68693 | 36857 ft | 395 kts | 206° |
| 2026-05-05 14:53 | 47.54976 | 7.64544 | 36867 ft | 396 kts | 206° |
| 2026-05-05 14:54 | 47.50023 | 7.60976 | 36857 ft | 395 kts | 206° |
| 2026-05-05 14:54 | 47.45881 | 7.58000 | 36856 ft | 394 kts | 206° |
| 2026-05-05 14:55 | 47.40979 | 7.54486 | 36853 ft | 395 kts | 206° |
| 2026-05-05 14:55 | 47.36009 | 7.50931 | 36870 ft | 395 kts | 206° |
| 2026-05-05 14:56 | 47.31067 | 7.47400 | 36886 ft | 395 kts | 206° |
| 2026-05-05 14:56 | 47.26123 | 7.43877 | 36882 ft | 394 kts | 206° |
| 2026-05-05 14:57 | 47.21177 | 7.40372 | 36896 ft | 395 kts | 206° |
| 2026-05-05 14:57 | 47.16496 | 7.36321 | 36890 ft | 393 kts | 220° |
| 2026-05-05 14:58 | 47.12868 | 7.30320 | 36879 ft | 394 kts | 230° |
| 2026-05-05 14:58 | 47.09453 | 7.24019 | 36879 ft | 394 kts | 230° |
| 2026-05-05 14:59 | 47.06019 | 7.17744 | 36877 ft | 395 kts | 230° |
| 2026-05-05 14:59 | 47.02582 | 7.11451 | 36878 ft | 395 kts | 230° |
| 2026-05-05 15:00 | 46.99730 | 7.06226 | 36882 ft | 395 kts | 230° |
| 2026-05-05 15:00 | 46.95711 | 6.98880 | 36886 ft | 395 kts | 230° |
| 2026-05-05 15:01 | 46.92271 | 6.92620 | 36884 ft | 395 kts | 230° |
| 2026-05-05 15:01 | 46.88273 | 6.87159 | 36891 ft | 394 kts | 219° |
| 2026-05-05 15:02 | 46.84021 | 6.82098 | 36891 ft | 394 kts | 219° |
| 2026-05-05 15:02 | 46.79778 | 6.77045 | 36885 ft | 394 kts | 219° |
| 2026-05-05 15:03 | 46.75537 | 6.71992 | 36893 ft | 394 kts | 219° |
| 2026-05-05 15:03 | 46.71289 | 6.66957 | 36899 ft | 393 kts | 219° |
| 2026-05-05 15:04 | 46.67040 | 6.61946 | 36907 ft | 393 kts | 219° |
| 2026-05-05 15:04 | 46.62791 | 6.56938 | 36909 ft | 393 kts | 219° |
| 2026-05-05 15:05 | 46.56452 | 6.49473 | 36914 ft | 392 kts | 219° |
| 2026-05-05 15:06 | 46.52210 | 6.44494 | 36916 ft | 392 kts | 219° |
| 2026-05-05 15:06 | 46.47948 | 6.39491 | 36913 ft | 391 kts | 219° |
| 2026-05-05 15:07 | 46.43741 | 6.34563 | 36914 ft | 391 kts | 219° |
| 2026-05-05 15:07 | 46.39502 | 6.29623 | 36915 ft | 391 kts | 219° |
| 2026-05-05 15:08 | 46.35259 | 6.24689 | 36916 ft | 391 kts | 219° |
| 2026-05-05 15:08 | 46.31014 | 6.19754 | 36919 ft | 391 kts | 219° |
| 2026-05-05 15:09 | 46.26675 | 6.14992 | 36924 ft | 392 kts | 211° |
| 2026-05-05 15:09 | 46.21540 | 6.12348 | 36923 ft | 397 kts | 191° |
| 2026-05-05 15:10 | 46.16075 | 6.11151 | 36924 ft | 397 kts | 192° |
| 2026-05-05 15:10 | 46.10632 | 6.09945 | 36920 ft | 397 kts | 192° |
| 2026-05-05 15:11 | 46.05176 | 6.08731 | 36921 ft | 396 kts | 192° |
| 2026-05-05 15:11 | 45.99728 | 6.07519 | 36926 ft | 395 kts | 192° |
| 2026-05-05 15:12 | 45.94294 | 6.06315 | 36933 ft | 395 kts | 192° |
| 2026-05-05 15:12 | 45.88868 | 6.05121 | 36924 ft | 394 kts | 192° |
| 2026-05-05 15:13 | 45.83455 | 6.03930 | 36933 ft | 393 kts | 192° |
| 2026-05-05 15:13 | 45.78053 | 6.02734 | 36921 ft | 392 kts | 193° |
| 2026-05-05 15:14 | 45.72664 | 6.01539 | 36907 ft | 392 kts | 193° |
| 2026-05-05 15:14 | 45.67278 | 6.00361 | 36895 ft | 391 kts | 193° |
| 2026-05-05 15:15 | 45.61903 | 5.99182 | 36899 ft | 390 kts | 193° |
| 2026-05-05 15:15 | 45.56537 | 5.97998 | 36896 ft | 390 kts | 193° |
| 2026-05-05 15:16 | 45.51187 | 5.96768 | 36898 ft | 387 kts | 197° |
| 2026-05-05 15:16 | 45.46353 | 5.93692 | 36895 ft | 380 kts | 217° |
| 2026-05-05 15:16 | 45.44340 | 5.91234 | 36741 ft | 388 kts | 226° |
| 2026-05-05 15:17 | 45.42449 | 5.88495 | 36413 ft | 386 kts | 226° |
| 2026-05-05 15:17 | 45.40579 | 5.85795 | 35958 ft | 381 kts | 226° |
| 2026-05-05 15:17 | 45.38725 | 5.83133 | 35505 ft | 376 kts | 226° |
| 2026-05-05 15:17 | 45.36891 | 5.80510 | 35050 ft | 372 kts | 225° |
| 2026-05-05 15:18 | 45.35077 | 5.77919 | 34597 ft | 368 kts | 226° |
| 2026-05-05 15:18 | 45.33285 | 5.75363 | 34160 ft | 362 kts | 225° |
| 2026-05-05 15:18 | 45.31519 | 5.72843 | 33688 ft | 358 kts | 226° |
| 2026-05-05 15:18 | 45.29775 | 5.70357 | 33242 ft | 352 kts | 226° |
| 2026-05-05 15:19 | 45.28059 | 5.67914 | 32813 ft | 347 kts | 226° |
| 2026-05-05 15:19 | 45.26390 | 5.65535 | 32407 ft | 342 kts | 226° |
| 2026-05-05 15:19 | 45.24723 | 5.63161 | 31999 ft | 337 kts | 226° |
| 2026-05-05 15:19 | 45.23071 | 5.60814 | 31596 ft | 335 kts | 225° |
| 2026-05-05 15:20 | 45.21424 | 5.58484 | 31200 ft | 332 kts | 225° |
| 2026-05-05 15:20 | 45.19797 | 5.56182 | 30815 ft | 328 kts | 226° |
| 2026-05-05 15:20 | 45.18196 | 5.53911 | 30438 ft | 325 kts | 226° |
| 2026-05-05 15:20 | 45.16605 | 5.51663 | 30067 ft | 321 kts | 225° |
| 2026-05-05 15:21 | 45.15028 | 5.49438 | 29664 ft | 319 kts | 225° |
| 2026-05-05 15:21 | 45.13467 | 5.47239 | 29305 ft | 314 kts | 225° |
| 2026-05-05 15:21 | 45.11934 | 5.45075 | 28963 ft | 308 kts | 225° |
| 2026-05-05 15:21 | 45.10425 | 5.42943 | 28678 ft | 308 kts | 225° |
| 2026-05-05 15:22 | 45.08873 | 5.40751 | 28404 ft | 320 kts | 225° |
| 2026-05-05 15:22 | 45.07290 | 5.38517 | 28118 ft | 322 kts | 225° |
| 2026-05-05 15:22 | 45.05700 | 5.36275 | 27829 ft | 323 kts | 225° |
| 2026-05-05 15:22 | 45.04105 | 5.34034 | 27552 ft | 323 kts | 225° |
| 2026-05-05 15:23 | 45.02516 | 5.31803 | 27268 ft | 321 kts | 225° |
| 2026-05-05 15:23 | 45.00935 | 5.29584 | 26985 ft | 320 kts | 225° |
| 2026-05-05 15:23 | 44.99354 | 5.27368 | 26702 ft | 320 kts | 225° |
| 2026-05-05 15:23 | 44.97777 | 5.25158 | 26415 ft | 319 kts | 225° |
| 2026-05-05 15:24 | 44.96200 | 5.22949 | 26135 ft | 319 kts | 225° |
| 2026-05-05 15:24 | 44.94631 | 5.20753 | 25846 ft | 318 kts | 225° |
| 2026-05-05 15:24 | 44.93066 | 5.18563 | 25571 ft | 317 kts | 225° |
| 2026-05-05 15:24 | 44.91505 | 5.16376 | 25288 ft | 316 kts | 225° |
| 2026-05-05 15:25 | 44.89943 | 5.14192 | 25013 ft | 316 kts | 225° |
| 2026-05-05 15:25 | 44.88404 | 5.12048 | 24737 ft | 315 kts | 225° |
| 2026-05-05 15:25 | 44.86848 | 5.09881 | 24458 ft | 314 kts | 225° |
| 2026-05-05 15:25 | 44.85296 | 5.07716 | 24185 ft | 313 kts | 225° |
| 2026-05-05 15:26 | 44.83749 | 5.05557 | 23900 ft | 313 kts | 225° |
| 2026-05-05 15:26 | 44.82206 | 5.03415 | 23629 ft | 312 kts | 224° |
| 2026-05-05 15:26 | 44.80663 | 5.01275 | 23336 ft | 311 kts | 224° |
| 2026-05-05 15:26 | 44.79124 | 4.99140 | 23047 ft | 310 kts | 224° |
| 2026-05-05 15:27 | 44.77586 | 4.97012 | 22768 ft | 309 kts | 224° |
| 2026-05-05 15:27 | 44.76054 | 4.94892 | 22481 ft | 308 kts | 224° |
| 2026-05-05 15:27 | 44.74526 | 4.92780 | 22236 ft | 307 kts | 224° |
| 2026-05-05 15:27 | 44.72980 | 4.90707 | 21955 ft | 306 kts | 219° |
| 2026-05-05 15:28 | 44.71199 | 4.89072 | 21636 ft | 307 kts | 208° |
| 2026-05-05 15:28 | 44.69293 | 4.87734 | 21305 ft | 305 kts | 208° |
| 2026-05-05 15:28 | 44.67399 | 4.86403 | 20969 ft | 304 kts | 208° |
| 2026-05-05 15:28 | 44.65507 | 4.85069 | 20647 ft | 304 kts | 208° |
| 2026-05-05 15:29 | 44.63622 | 4.83736 | 20317 ft | 303 kts | 208° |
| 2026-05-05 15:29 | 44.61744 | 4.82408 | 19993 ft | 302 kts | 208° |
| 2026-05-05 15:29 | 44.59872 | 4.81085 | 19665 ft | 301 kts | 208° |
| 2026-05-05 15:29 | 44.58005 | 4.79765 | 19337 ft | 300 kts | 208° |
| 2026-05-05 15:30 | 44.56135 | 4.78472 | 19010 ft | 300 kts | 204° |
| 2026-05-05 15:30 | 44.54132 | 4.77650 | 18643 ft | 301 kts | 192° |
| 2026-05-05 15:30 | 44.52066 | 4.77167 | 18243 ft | 301 kts | 192° |
| 2026-05-05 15:30 | 44.50004 | 4.76684 | 17808 ft | 300 kts | 192° |
| 2026-05-05 15:31 | 44.47953 | 4.76201 | 17401 ft | 298 kts | 192° |
| 2026-05-05 15:31 | 44.45912 | 4.75718 | 17014 ft | 297 kts | 192° |
| 2026-05-05 15:31 | 44.43880 | 4.75236 | 16624 ft | 295 kts | 192° |
| 2026-05-05 15:31 | 44.41858 | 4.74755 | 16236 ft | 294 kts | 192° |
| 2026-05-05 15:32 | 44.39843 | 4.74277 | 15848 ft | 293 kts | 192° |
| 2026-05-05 15:32 | 44.37834 | 4.73801 | 15460 ft | 292 kts | 192° |
| 2026-05-05 15:32 | 44.35830 | 4.73327 | 15074 ft | 292 kts | 192° |
| 2026-05-05 15:32 | 44.33829 | 4.72856 | 14689 ft | 291 kts | 192° |
| 2026-05-05 15:33 | 44.31837 | 4.72385 | 14309 ft | 291 kts | 192° |
| 2026-05-05 15:33 | 44.29846 | 4.71915 | 13958 ft | 289 kts | 192° |
| 2026-05-05 15:33 | 44.27859 | 4.71447 | 13553 ft | 290 kts | 191° |
| 2026-05-05 15:33 | 44.25909 | 4.70987 | 13187 ft | 288 kts | 191° |
| 2026-05-05 15:34 | 44.23913 | 4.70520 | 12800 ft | 286 kts | 191° |
| 2026-05-05 15:34 | 44.21975 | 4.70068 | 12398 ft | 285 kts | 191° |
| 2026-05-05 15:34 | 44.20024 | 4.69614 | 12008 ft | 284 kts | 191° |
| 2026-05-05 15:34 | 44.18056 | 4.69153 | 11621 ft | 282 kts | 191° |
| 2026-05-05 15:35 | 44.16155 | 4.68707 | 11255 ft | 281 kts | 191° |
| 2026-05-05 15:35 | 44.14236 | 4.68258 | 10891 ft | 279 kts | 191° |
| 2026-05-05 15:35 | 44.12308 | 4.68034 | 10523 ft | 279 kts | 179° |
| 2026-05-05 15:35 | 44.10404 | 4.68541 | 10167 ft | 280 kts | 163° |
| 2026-05-05 15:36 | 44.08595 | 4.69546 | 9788 ft | 279 kts | 160° |
| 2026-05-05 15:36 | 44.06800 | 4.70564 | 9390 ft | 278 kts | 160° |
| 2026-05-05 15:36 | 44.05018 | 4.71571 | 9023 ft | 276 kts | 160° |
| 2026-05-05 15:36 | 44.03248 | 4.72566 | 8658 ft | 273 kts | 160° |
| 2026-05-05 15:37 | 44.01493 | 4.73549 | 8302 ft | 271 kts | 160° |
| 2026-05-05 15:37 | 43.99746 | 4.74525 | 7944 ft | 270 kts | 160° |
| 2026-05-05 15:37 | 43.98015 | 4.75496 | 7783 ft | 268 kts | 160° |
| 2026-05-05 15:37 | 43.96290 | 4.76466 | 7726 ft | 268 kts | 160° |
| 2026-05-05 15:38 | 43.94558 | 4.77439 | 7572 ft | 268 kts | 160° |
| 2026-05-05 15:38 | 43.92833 | 4.78407 | 7350 ft | 267 kts | 160° |
| 2026-05-05 15:38 | 43.91116 | 4.79371 | 7098 ft | 265 kts | 160° |
| 2026-05-05 15:38 | 43.89407 | 4.80329 | 6850 ft | 265 kts | 160° |
| 2026-05-05 15:39 | 43.87703 | 4.81285 | 6611 ft | 263 kts | 159° |
| 2026-05-05 15:39 | 43.86030 | 4.82219 | 6368 ft | 262 kts | 160° |
| 2026-05-05 15:39 | 43.84335 | 4.83165 | 6118 ft | 262 kts | 160° |
| 2026-05-05 15:39 | 43.82645 | 4.84108 | 5888 ft | 261 kts | 160° |
| 2026-05-05 15:40 | 43.80968 | 4.85046 | 5651 ft | 260 kts | 160° |
| 2026-05-05 15:40 | 43.79287 | 4.85985 | 5419 ft | 260 kts | 160° |
| 2026-05-05 15:40 | 43.77616 | 4.86921 | 5195 ft | 260 kts | 160° |
| 2026-05-05 15:40 | 43.75952 | 4.87854 | 5022 ft | 258 kts | 159° |
| 2026-05-05 15:41 | 43.74288 | 4.88789 | 4970 ft | 258 kts | 160° |
| 2026-05-05 15:41 | 43.72617 | 4.89728 | 4975 ft | 259 kts | 160° |
| 2026-05-05 15:41 | 43.70963 | 4.90658 | 4974 ft | 250 kts | 160° |
| 2026-05-05 15:41 | 43.69415 | 4.91540 | 4977 ft | 232 kts | 160° |
| 2026-05-05 15:42 | 43.67948 | 4.92379 | 4799 ft | 226 kts | 159° |
| 2026-05-05 15:42 | 43.66506 | 4.93197 | 4544 ft | 222 kts | 160° |
| 2026-05-05 15:42 | 43.65080 | 4.94009 | 4285 ft | 221 kts | 160° |
| 2026-05-05 15:42 | 43.63669 | 4.94814 | 4058 ft | 217 kts | 160° |
| 2026-05-05 15:43 | 43.62312 | 4.95589 | 3982 ft | 206 kts | 160° |
| 2026-05-05 15:43 | 43.61135 | 4.96612 | 3988 ft | 200 kts | 141° |
| 2026-05-05 15:43 | 43.60211 | 4.97853 | 3978 ft | 199 kts | 137° |
| 2026-05-05 15:43 | 43.59247 | 4.99227 | 3974 ft | 200 kts | 137° |
| 2026-05-05 15:44 | 43.58607 | 5.00144 | 3878 ft | 200 kts | 137° |
| 2026-05-05 15:44 | 43.57646 | 5.01522 | 3658 ft | 200 kts | 137° |
| 2026-05-05 15:44 | 43.56686 | 5.02899 | 3401 ft | 199 kts | 137° |
| 2026-05-05 15:44 | 43.55716 | 5.04289 | 3141 ft | 205 kts | 136° |
| 2026-05-05 15:45 | 43.54726 | 5.05706 | 2871 ft | 207 kts | 136° |
| 2026-05-05 15:45 | 43.53731 | 5.07132 | 2583 ft | 204 kts | 136° |
| 2026-05-05 15:45 | 43.52768 | 5.08512 | 2321 ft | 198 kts | 136° |
| 2026-05-05 15:45 | 43.51837 | 5.09846 | 2069 ft | 187 kts | 137° |
| 2026-05-05 15:46 | 43.50997 | 5.11048 | 1824 ft | 176 kts | 137° |
| 2026-05-05 15:46 | 43.50162 | 5.12241 | 1611 ft | 171 kts | 138° |
| 2026-05-05 15:46 | 43.49361 | 5.13385 | 1398 ft | 158 kts | 138° |
| 2026-05-05 15:46 | 43.48648 | 5.14405 | 1188 ft | 138 kts | 138° |
| 2026-05-05 15:47 | 43.48008 | 5.15318 | 1012 ft | 130 kts | 139° |
| 2026-05-05 15:47 | 43.47395 | 5.16192 | 842 ft | 124 kts | 139° |
| 2026-05-05 15:47 | 43.46800 | 5.17039 | 655 ft | 122 kts | 139° |
| 2026-05-05 15:47 | 43.46214 | 5.17869 | 498 ft | 121 kts | 139° |
| 2026-05-05 15:48 | 43.45631 | 5.18711 | 340 ft | 122 kts | 139° |
| 2026-05-05 15:48 | 43.45052 | 5.19541 | 157 ft | 118 kts | 139° |
| 2026-05-05 15:48 | 43.44488 | 5.20346 | 43 ft | 112 kts | 138° |
| 2026-05-05 15:48 | 43.44032 | 5.20984 | 35 ft | 71 kts | 134° |
| 2026-05-05 15:49 | 43.43792 | 5.21331 | 38 ft | 40 kts | 133° |
| 2026-05-05 15:49 | 43.43610 | 5.21594 | 36 ft | 36 kts | 134° |
| 2026-05-05 15:49 | 43.43440 | 5.21833 | 35 ft | 33 kts | 134° |
| 2026-05-05 15:49 | 43.43332 | 5.22076 | 37 ft | 28 kts | 91° |
| 2026-05-05 15:50 | 43.43360 | 5.22262 | 37 ft | 15 kts | 43° |
| 2026-05-05 15:50 | 43.43461 | 5.22255 | 37 ft | 16 kts | 326° |
| 2026-05-05 15:50 | 43.43561 | 5.22173 | 36 ft | 17 kts | 330° |
| 2026-05-05 15:50 | 43.43667 | 5.22086 | 37 ft | 18 kts | 329° |
| 2026-05-05 15:51 | 43.43762 | 5.22026 | 37 ft | 13 kts | 1° |
| 2026-05-05 15:51 | 43.43834 | 5.22098 | 37 ft | 14 kts | 44° |
| 2026-05-05 15:51 | 43.43865 | 5.22180 | 37 ft | 9 kts | 108° |
| 2026-05-05 15:51 | 43.43851 | 5.22254 | 37 ft | 7 kts | 71° |
| 2026-05-05 15:52 | 43.43864 | 5.22310 | 37 ft | 2 kts | 73° |
| 2026-05-05 15:52 | 43.43864 | 5.22313 | 37 ft | 0 kts | 73° |